sensor_id;sensor_type;location;lat;lon;timestamp;P1;durP1;ratioP1;P2;durP2;ratioP2
63965;SDS011;50151;52.030;5.350;2023-04-29T00:00:07;20.25;;;11.35;;
63965;SDS011;50151;52.030;5.350;2023-04-29T00:02:36;23.13;;;12.48;;
63965;SDS011;50151;52.030;5.350;2023-04-29T00:05:03;21.90;;;13.30;;
63965;SDS011;50151;52.030;5.350;2023-04-29T00:07:31;20.75;;;11.65;;
63965;SDS011;50151;52.030;5.350;2023-04-29T00:09:57;22.15;;;13.43;;
63965;SDS011;50151;52.030;5.350;2023-04-29T00:12:25;21.90;;;12.75;;
63965;SDS011;50151;52.030;5.350;2023-04-29T00:14:51;26.95;;;13.23;;
63965;SDS011;50151;52.030;5.350;2023-04-29T00:17:18;19.88;;;12.05;;
63965;SDS011;50151;52.030;5.350;2023-04-29T00:19:45;26.55;;;14.38;;
63965;SDS011;50151;52.030;5.350;2023-04-29T00:22:12;29.65;;;15.52;;
63965;SDS011;50151;52.030;5.350;2023-04-29T00:24:38;29.80;;;14.70;;
63965;SDS011;50151;52.030;5.350;2023-04-29T00:27:05;28.15;;;14.85;;
63965;SDS011;50151;52.030;5.350;2023-04-29T00:29:32;29.33;;;16.10;;
63965;SDS011;50151;52.030;5.350;2023-04-29T00:31:58;35.28;;;17.08;;
63965;SDS011;50151;52.030;5.350;2023-04-29T00:34:25;27.45;;;15.50;;
63965;SDS011;50151;52.030;5.350;2023-04-29T00:36:52;27.83;;;16.20;;
63965;SDS011;50151;52.030;5.350;2023-04-29T00:39:19;27.75;;;15.05;;
63965;SDS011;50151;52.030;5.350;2023-04-29T00:41:45;29.10;;;16.33;;
63965;SDS011;50151;52.030;5.350;2023-04-29T00:44:12;31.38;;;15.40;;
63965;SDS011;50151;52.030;5.350;2023-04-29T00:46:39;38.25;;;16.73;;
63965;SDS011;50151;52.030;5.350;2023-04-29T00:49:06;31.33;;;16.50;;
63965;SDS011;50151;52.030;5.350;2023-04-29T00:51:35;28.50;;;15.55;;
63965;SDS011;50151;52.030;5.350;2023-04-29T00:54:02;34.17;;;18.45;;
63965;SDS011;50151;52.030;5.350;2023-04-29T00:56:30;31.38;;;18.23;;
63965;SDS011;50151;52.030;5.350;2023-04-29T00:58:59;31.75;;;16.83;;
63965;SDS011;50151;52.030;5.350;2023-04-29T01:01:30;27.35;;;15.82;;
63965;SDS011;50151;52.030;5.350;2023-04-29T01:03:57;36.15;;;17.92;;
63965;SDS011;50151;52.030;5.350;2023-04-29T01:06:28;33.45;;;16.73;;
63965;SDS011;50151;52.030;5.350;2023-04-29T01:11:52;30.88;;;16.90;;
63965;SDS011;50151;52.030;5.350;2023-04-29T01:14:47;34.35;;;17.00;;
63965;SDS011;50151;52.030;5.350;2023-04-29T01:17:30;37.80;;;18.17;;
63965;SDS011;50151;52.030;5.350;2023-04-29T01:20:02;31.15;;;17.23;;
63965;SDS011;50151;52.030;5.350;2023-04-29T01:22:30;36.35;;;17.13;;
63965;SDS011;50151;52.030;5.350;2023-04-29T01:24:57;34.13;;;17.00;;
63965;SDS011;50151;52.030;5.350;2023-04-29T01:30:41;34.60;;;16.60;;
63965;SDS011;50151;52.030;5.350;2023-04-29T01:33:07;29.73;;;15.10;;
63965;SDS011;50151;52.030;5.350;2023-04-29T01:41:14;27.75;;;15.20;;
63965;SDS011;50151;52.030;5.350;2023-04-29T01:43:45;27.02;;;13.93;;
63965;SDS011;50151;52.030;5.350;2023-04-29T01:46:15;26.10;;;14.32;;
63965;SDS011;50151;52.030;5.350;2023-04-29T01:48:44;23.50;;;12.88;;
63965;SDS011;50151;52.030;5.350;2023-04-29T01:51:11;26.60;;;14.63;;
63965;SDS011;50151;52.030;5.350;2023-04-29T01:53:38;26.60;;;14.55;;
63965;SDS011;50151;52.030;5.350;2023-04-29T01:56:06;27.25;;;15.18;;
63965;SDS011;50151;52.030;5.350;2023-04-29T01:58:33;33.97;;;13.95;;
63965;SDS011;50151;52.030;5.350;2023-04-29T02:01:00;26.05;;;13.68;;
63965;SDS011;50151;52.030;5.350;2023-04-29T02:03:26;21.50;;;11.68;;
63965;SDS011;50151;52.030;5.350;2023-04-29T02:05:54;26.33;;;13.68;;
63965;SDS011;50151;52.030;5.350;2023-04-29T02:08:20;21.60;;;13.73;;
63965;SDS011;50151;52.030;5.350;2023-04-29T02:10:52;24.20;;;13.05;;
63965;SDS011;50151;52.030;5.350;2023-04-29T02:13:19;25.48;;;14.65;;
63965;SDS011;50151;52.030;5.350;2023-04-29T02:15:46;22.52;;;13.88;;
63965;SDS011;50151;52.030;5.350;2023-04-29T02:18:13;29.60;;;13.07;;
63965;SDS011;50151;52.030;5.350;2023-04-29T02:20:40;22.25;;;13.38;;
63965;SDS011;50151;52.030;5.350;2023-04-29T02:23:07;25.92;;;12.63;;
63965;SDS011;50151;52.030;5.350;2023-04-29T02:25:34;28.48;;;13.70;;
63965;SDS011;50151;52.030;5.350;2023-04-29T02:28:01;22.75;;;12.88;;
63965;SDS011;50151;52.030;5.350;2023-04-29T02:30:28;21.83;;;12.35;;
63965;SDS011;50151;52.030;5.350;2023-04-29T02:32:55;25.73;;;13.20;;
63965;SDS011;50151;52.030;5.350;2023-04-29T02:35:22;21.88;;;12.02;;
63965;SDS011;50151;52.030;5.350;2023-04-29T02:37:49;25.15;;;13.75;;
63965;SDS011;50151;52.030;5.350;2023-04-29T02:40:15;20.52;;;12.00;;
63965;SDS011;50151;52.030;5.350;2023-04-29T02:42:42;28.05;;;12.68;;
63965;SDS011;50151;52.030;5.350;2023-04-29T02:45:09;25.15;;;12.65;;
63965;SDS011;50151;52.030;5.350;2023-04-29T02:47:36;25.67;;;13.60;;
63965;SDS011;50151;52.030;5.350;2023-04-29T02:50:02;18.80;;;11.52;;
63965;SDS011;50151;52.030;5.350;2023-04-29T02:52:29;17.88;;;10.23;;
63965;SDS011;50151;52.030;5.350;2023-04-29T02:54:57;18.90;;;11.38;;
63965;SDS011;50151;52.030;5.350;2023-04-29T02:57:23;24.27;;;11.75;;
63965;SDS011;50151;52.030;5.350;2023-04-29T02:59:50;27.05;;;11.68;;
63965;SDS011;50151;52.030;5.350;2023-04-29T03:02:17;20.42;;;11.65;;
63965;SDS011;50151;52.030;5.350;2023-04-29T03:04:43;22.25;;;11.80;;
63965;SDS011;50151;52.030;5.350;2023-04-29T03:07:10;20.75;;;11.73;;
63965;SDS011;50151;52.030;5.350;2023-04-29T03:09:37;20.25;;;11.40;;
63965;SDS011;50151;52.030;5.350;2023-04-29T03:12:04;25.23;;;11.90;;
63965;SDS011;50151;52.030;5.350;2023-04-29T03:14:30;22.83;;;11.85;;
63965;SDS011;50151;52.030;5.350;2023-04-29T03:16:57;22.98;;;12.07;;
63965;SDS011;50151;52.030;5.350;2023-04-29T03:19:24;21.50;;;12.02;;
63965;SDS011;50151;52.030;5.350;2023-04-29T03:21:50;19.95;;;11.45;;
63965;SDS011;50151;52.030;5.350;2023-04-29T03:24:19;20.38;;;11.25;;
63965;SDS011;50151;52.030;5.350;2023-04-29T03:26:45;25.98;;;12.23;;
63965;SDS011;50151;52.030;5.350;2023-04-29T03:29:12;20.40;;;11.43;;
63965;SDS011;50151;52.030;5.350;2023-04-29T03:31:39;24.30;;;11.13;;
63965;SDS011;50151;52.030;5.350;2023-04-29T03:34:05;19.70;;;11.00;;
63965;SDS011;50151;52.030;5.350;2023-04-29T03:36:32;23.52;;;11.65;;
63965;SDS011;50151;52.030;5.350;2023-04-29T03:38:59;24.08;;;12.30;;
63965;SDS011;50151;52.030;5.350;2023-04-29T03:41:26;19.08;;;11.07;;
63965;SDS011;50151;52.030;5.350;2023-04-29T03:43:52;20.10;;;11.10;;
63965;SDS011;50151;52.030;5.350;2023-04-29T03:46:20;23.00;;;11.35;;
63965;SDS011;50151;52.030;5.350;2023-04-29T03:48:47;18.30;;;10.48;;
63965;SDS011;50151;52.030;5.350;2023-04-29T03:51:13;19.88;;;11.60;;
63965;SDS011;50151;52.030;5.350;2023-04-29T03:53:43;20.67;;;11.40;;
63965;SDS011;50151;52.030;5.350;2023-04-29T03:56:10;19.42;;;11.90;;
63965;SDS011;50151;52.030;5.350;2023-04-29T03:58:36;24.02;;;11.52;;
63965;SDS011;50151;52.030;5.350;2023-04-29T04:01:03;20.00;;;11.52;;
63965;SDS011;50151;52.030;5.350;2023-04-29T04:03:30;18.63;;;11.60;;
63965;SDS011;50151;52.030;5.350;2023-04-29T04:05:57;18.85;;;11.45;;
63965;SDS011;50151;52.030;5.350;2023-04-29T04:08:24;22.42;;;11.07;;
63965;SDS011;50151;52.030;5.350;2023-04-29T04:10:51;23.38;;;11.85;;
63965;SDS011;50151;52.030;5.350;2023-04-29T04:13:17;21.10;;;11.80;;
63965;SDS011;50151;52.030;5.350;2023-04-29T04:15:50;19.88;;;11.32;;
63965;SDS011;50151;52.030;5.350;2023-04-29T04:18:19;21.77;;;11.45;;
63965;SDS011;50151;52.030;5.350;2023-04-29T04:20:46;21.35;;;11.65;;
63965;SDS011;50151;52.030;5.350;2023-04-29T04:23:13;26.25;;;11.20;;
63965;SDS011;50151;52.030;5.350;2023-04-29T04:25:46;23.35;;;11.27;;
63965;SDS011;50151;52.030;5.350;2023-04-29T04:28:13;23.35;;;12.10;;
63965;SDS011;50151;52.030;5.350;2023-04-29T04:30:40;21.60;;;12.45;;
63965;SDS011;50151;52.030;5.350;2023-04-29T04:33:08;18.83;;;11.60;;
63965;SDS011;50151;52.030;5.350;2023-04-29T04:35:35;20.25;;;11.15;;
63965;SDS011;50151;52.030;5.350;2023-04-29T04:38:02;20.77;;;11.30;;
63965;SDS011;50151;52.030;5.350;2023-04-29T04:40:29;20.33;;;11.40;;
63965;SDS011;50151;52.030;5.350;2023-04-29T04:42:55;18.33;;;10.77;;
63965;SDS011;50151;52.030;5.350;2023-04-29T04:45:22;17.58;;;10.68;;
63965;SDS011;50151;52.030;5.350;2023-04-29T04:47:49;18.42;;;10.30;;
63965;SDS011;50151;52.030;5.350;2023-04-29T04:50:15;18.48;;;10.60;;
63965;SDS011;50151;52.030;5.350;2023-04-29T04:52:42;18.73;;;9.80;;
63965;SDS011;50151;52.030;5.350;2023-04-29T04:55:09;16.13;;;9.60;;
63965;SDS011;50151;52.030;5.350;2023-04-29T04:57:38;14.88;;;9.65;;
63965;SDS011;50151;52.030;5.350;2023-04-29T05:00:05;16.65;;;9.43;;
63965;SDS011;50151;52.030;5.350;2023-04-29T05:02:32;17.10;;;9.50;;
63965;SDS011;50151;52.030;5.350;2023-04-29T05:04:59;19.40;;;9.13;;
63965;SDS011;50151;52.030;5.350;2023-04-29T05:07:26;17.13;;;9.20;;
63965;SDS011;50151;52.030;5.350;2023-04-29T05:09:52;19.95;;;9.75;;
63965;SDS011;50151;52.030;5.350;2023-04-29T05:12:19;13.02;;;8.77;;
63965;SDS011;50151;52.030;5.350;2023-04-29T05:14:46;14.05;;;8.38;;
63965;SDS011;50151;52.030;5.350;2023-04-29T05:17:12;16.05;;;8.57;;
63965;SDS011;50151;52.030;5.350;2023-04-29T05:19:39;17.63;;;9.25;;
63965;SDS011;50151;52.030;5.350;2023-04-29T05:22:06;14.07;;;8.60;;
63965;SDS011;50151;52.030;5.350;2023-04-29T05:24:32;13.23;;;9.27;;
63965;SDS011;50151;52.030;5.350;2023-04-29T05:26:59;13.50;;;8.63;;
63965;SDS011;50151;52.030;5.350;2023-04-29T05:29:25;13.27;;;9.23;;
63965;SDS011;50151;52.030;5.350;2023-04-29T05:31:53;14.30;;;8.70;;
63965;SDS011;50151;52.030;5.350;2023-04-29T05:34:19;15.27;;;8.43;;
63965;SDS011;50151;52.030;5.350;2023-04-29T05:36:46;18.35;;;9.27;;
63965;SDS011;50151;52.030;5.350;2023-04-29T05:39:12;15.98;;;8.50;;
63965;SDS011;50151;52.030;5.350;2023-04-29T05:41:39;13.82;;;8.30;;
63965;SDS011;50151;52.030;5.350;2023-04-29T05:44:06;12.25;;;7.60;;
63965;SDS011;50151;52.030;5.350;2023-04-29T05:46:32;15.43;;;8.50;;
63965;SDS011;50151;52.030;5.350;2023-04-29T05:48:59;14.05;;;8.23;;
63965;SDS011;50151;52.030;5.350;2023-04-29T05:51:26;12.38;;;7.88;;
63965;SDS011;50151;52.030;5.350;2023-04-29T05:53:53;13.70;;;7.70;;
63965;SDS011;50151;52.030;5.350;2023-04-29T05:56:20;13.18;;;7.65;;
63965;SDS011;50151;52.030;5.350;2023-04-29T05:58:47;20.38;;;8.10;;
63965;SDS011;50151;52.030;5.350;2023-04-29T06:01:14;17.33;;;8.15;;
63965;SDS011;50151;52.030;5.350;2023-04-29T06:03:42;14.60;;;8.57;;
63965;SDS011;50151;52.030;5.350;2023-04-29T06:06:09;13.65;;;8.00;;
63965;SDS011;50151;52.030;5.350;2023-04-29T06:08:36;13.45;;;7.20;;
63965;SDS011;50151;52.030;5.350;2023-04-29T06:11:03;11.70;;;8.15;;
63965;SDS011;50151;52.030;5.350;2023-04-29T06:13:31;14.68;;;7.97;;
63965;SDS011;50151;52.030;5.350;2023-04-29T06:15:58;15.90;;;8.77;;
63965;SDS011;50151;52.030;5.350;2023-04-29T06:18:24;15.48;;;8.52;;
63965;SDS011;50151;52.030;5.350;2023-04-29T06:20:51;22.48;;;9.70;;
63965;SDS011;50151;52.030;5.350;2023-04-29T06:23:18;19.55;;;9.48;;
63965;SDS011;50151;52.030;5.350;2023-04-29T06:25:44;16.55;;;8.82;;
63965;SDS011;50151;52.030;5.350;2023-04-29T06:28:11;17.15;;;9.00;;
63965;SDS011;50151;52.030;5.350;2023-04-29T06:30:37;12.18;;;8.55;;
63965;SDS011;50151;52.030;5.350;2023-04-29T06:33:04;16.63;;;9.18;;
63965;SDS011;50151;52.030;5.350;2023-04-29T06:35:31;15.30;;;8.85;;
63965;SDS011;50151;52.030;5.350;2023-04-29T06:37:57;17.33;;;9.15;;
63965;SDS011;50151;52.030;5.350;2023-04-29T06:40:24;16.48;;;8.95;;
63965;SDS011;50151;52.030;5.350;2023-04-29T06:42:51;17.23;;;9.18;;
63965;SDS011;50151;52.030;5.350;2023-04-29T06:45:18;18.98;;;9.70;;
63965;SDS011;50151;52.030;5.350;2023-04-29T06:47:44;16.40;;;8.95;;
63965;SDS011;50151;52.030;5.350;2023-04-29T06:50:11;16.88;;;8.82;;
63965;SDS011;50151;52.030;5.350;2023-04-29T06:52:38;21.20;;;9.20;;
63965;SDS011;50151;52.030;5.350;2023-04-29T06:55:05;20.23;;;9.88;;
63965;SDS011;50151;52.030;5.350;2023-04-29T06:57:32;23.33;;;10.27;;
63965;SDS011;50151;52.030;5.350;2023-04-29T06:59:58;19.88;;;9.77;;
63965;SDS011;50151;52.030;5.350;2023-04-29T07:02:25;17.60;;;9.40;;
63965;SDS011;50151;52.030;5.350;2023-04-29T07:04:52;20.55;;;9.13;;
63965;SDS011;50151;52.030;5.350;2023-04-29T07:07:19;18.55;;;9.88;;
63965;SDS011;50151;52.030;5.350;2023-04-29T07:09:46;20.60;;;10.20;;
63965;SDS011;50151;52.030;5.350;2023-04-29T07:12:16;19.20;;;10.13;;
63965;SDS011;50151;52.030;5.350;2023-04-29T07:14:43;21.77;;;9.70;;
63965;SDS011;50151;52.030;5.350;2023-04-29T07:17:09;16.35;;;9.48;;
63965;SDS011;50151;52.030;5.350;2023-04-29T07:19:39;17.23;;;9.85;;
63965;SDS011;50151;52.030;5.350;2023-04-29T07:22:06;17.67;;;9.38;;
63965;SDS011;50151;52.030;5.350;2023-04-29T07:24:32;17.33;;;8.98;;
63965;SDS011;50151;52.030;5.350;2023-04-29T07:26:59;18.75;;;9.57;;
63965;SDS011;50151;52.030;5.350;2023-04-29T07:29:26;20.52;;;9.63;;
63965;SDS011;50151;52.030;5.350;2023-04-29T07:31:52;18.30;;;8.63;;
63965;SDS011;50151;52.030;5.350;2023-04-29T07:34:19;18.55;;;9.40;;
63965;SDS011;50151;52.030;5.350;2023-04-29T07:36:46;13.45;;;8.38;;
63965;SDS011;50151;52.030;5.350;2023-04-29T07:39:12;16.48;;;8.18;;
63965;SDS011;50151;52.030;5.350;2023-04-29T07:41:40;15.98;;;7.78;;
63965;SDS011;50151;52.030;5.350;2023-04-29T07:44:07;14.90;;;7.13;;
63965;SDS011;50151;52.030;5.350;2023-04-29T07:46:33;15.68;;;7.70;;
63965;SDS011;50151;52.030;5.350;2023-04-29T07:49:00;13.77;;;7.85;;
63965;SDS011;50151;52.030;5.350;2023-04-29T07:51:27;16.48;;;8.05;;
63965;SDS011;50151;52.030;5.350;2023-04-29T07:53:54;15.40;;;7.93;;
63965;SDS011;50151;52.030;5.350;2023-04-29T07:56:21;15.52;;;7.53;;
63965;SDS011;50151;52.030;5.350;2023-04-29T07:58:48;14.52;;;7.47;;
63965;SDS011;50151;52.030;5.350;2023-04-29T08:01:15;16.17;;;7.68;;
63965;SDS011;50151;52.030;5.350;2023-04-29T08:03:42;13.40;;;6.35;;
63965;SDS011;50151;52.030;5.350;2023-04-29T08:06:09;15.95;;;7.30;;
63965;SDS011;50151;52.030;5.350;2023-04-29T08:08:36;16.73;;;7.05;;
63965;SDS011;50151;52.030;5.350;2023-04-29T08:11:02;10.98;;;6.78;;
63965;SDS011;50151;52.030;5.350;2023-04-29T08:13:29;15.13;;;7.05;;
63965;SDS011;50151;52.030;5.350;2023-04-29T08:15:56;15.30;;;7.90;;
63965;SDS011;50151;52.030;5.350;2023-04-29T08:18:26;17.35;;;7.25;;
63965;SDS011;50151;52.030;5.350;2023-04-29T08:20:53;16.52;;;6.82;;
63965;SDS011;50151;52.030;5.350;2023-04-29T08:23:19;10.65;;;6.05;;
63965;SDS011;50151;52.030;5.350;2023-04-29T08:25:46;15.73;;;6.45;;
63965;SDS011;50151;52.030;5.350;2023-04-29T08:28:17;11.65;;;6.40;;
63965;SDS011;50151;52.030;5.350;2023-04-29T08:30:44;10.60;;;5.85;;
63965;SDS011;50151;52.030;5.350;2023-04-29T08:33:11;76.18;;;7.88;;
63965;SDS011;50151;52.030;5.350;2023-04-29T08:35:39;14.85;;;5.90;;
63965;SDS011;50151;52.030;5.350;2023-04-29T08:38:07;10.13;;;5.63;;
63965;SDS011;50151;52.030;5.350;2023-04-29T08:40:34;11.23;;;5.15;;
63965;SDS011;50151;52.030;5.350;2023-04-29T08:43:06;12.65;;;5.93;;
63965;SDS011;50151;52.030;5.350;2023-04-29T08:45:35;12.80;;;5.80;;
63965;SDS011;50151;52.030;5.350;2023-04-29T08:48:02;11.82;;;5.95;;
63965;SDS011;50151;52.030;5.350;2023-04-29T08:50:30;9.52;;;5.70;;
63965;SDS011;50151;52.030;5.350;2023-04-29T08:52:57;14.10;;;5.80;;
63965;SDS011;50151;52.030;5.350;2023-04-29T08:55:24;13.10;;;5.30;;
63965;SDS011;50151;52.030;5.350;2023-04-29T08:57:53;8.98;;;4.93;;
63965;SDS011;50151;52.030;5.350;2023-04-29T09:00:21;9.98;;;4.50;;
63965;SDS011;50151;52.030;5.350;2023-04-29T09:02:50;10.40;;;4.97;;
63965;SDS011;50151;52.030;5.350;2023-04-29T09:05:21;8.48;;;5.03;;
63965;SDS011;50151;52.030;5.350;2023-04-29T09:07:49;10.60;;;5.05;;
63965;SDS011;50151;52.030;5.350;2023-04-29T09:10:19;9.40;;;4.65;;
63965;SDS011;50151;52.030;5.350;2023-04-29T09:12:46;13.38;;;4.47;;
63965;SDS011;50151;52.030;5.350;2023-04-29T09:15:13;10.98;;;4.07;;
63965;SDS011;50151;52.030;5.350;2023-04-29T09:17:44;7.47;;;4.50;;
63965;SDS011;50151;52.030;5.350;2023-04-29T09:22:48;8.18;;;4.53;;
63965;SDS011;50151;52.030;5.350;2023-04-29T09:25:21;9.43;;;4.70;;
63965;SDS011;50151;52.030;5.350;2023-04-29T09:27:47;10.52;;;4.60;;
63965;SDS011;50151;52.030;5.350;2023-04-29T09:30:15;11.95;;;4.90;;
63965;SDS011;50151;52.030;5.350;2023-04-29T09:32:42;7.97;;;4.32;;
63965;SDS011;50151;52.030;5.350;2023-04-29T09:35:20;6.90;;;4.72;;
63965;SDS011;50151;52.030;5.350;2023-04-29T09:37:52;9.00;;;4.75;;
63965;SDS011;50151;52.030;5.350;2023-04-29T09:40:33;7.93;;;4.88;;
63965;SDS011;50151;52.030;5.350;2023-04-29T09:43:12;8.45;;;4.63;;
63965;SDS011;50151;52.030;5.350;2023-04-29T09:45:42;10.30;;;4.40;;
63965;SDS011;50151;52.030;5.350;2023-04-29T09:48:11;7.90;;;4.50;;
63965;SDS011;50151;52.030;5.350;2023-04-29T09:50:40;10.77;;;4.78;;
63965;SDS011;50151;52.030;5.350;2023-04-29T09:53:09;8.73;;;3.90;;
63965;SDS011;50151;52.030;5.350;2023-04-29T09:58:37;9.63;;;4.45;;
63965;SDS011;50151;52.030;5.350;2023-04-29T10:01:05;7.82;;;4.38;;
63965;SDS011;50151;52.030;5.350;2023-04-29T10:03:33;6.63;;;3.85;;
63965;SDS011;50151;52.030;5.350;2023-04-29T10:06:03;9.98;;;4.35;;
63965;SDS011;50151;52.030;5.350;2023-04-29T10:08:33;8.63;;;3.95;;
63965;SDS011;50151;52.030;5.350;2023-04-29T10:11:03;7.50;;;3.85;;
63965;SDS011;50151;52.030;5.350;2023-04-29T10:13:30;6.78;;;3.70;;
63965;SDS011;50151;52.030;5.350;2023-04-29T10:16:05;6.15;;;3.33;;
63965;SDS011;50151;52.030;5.350;2023-04-29T10:18:39;8.55;;;4.15;;
63965;SDS011;50151;52.030;5.350;2023-04-29T10:21:07;8.20;;;4.20;;
63965;SDS011;50151;52.030;5.350;2023-04-29T10:23:35;7.97;;;4.07;;
63965;SDS011;50151;52.030;5.350;2023-04-29T10:26:02;6.15;;;4.13;;
63965;SDS011;50151;52.030;5.350;2023-04-29T10:28:33;7.35;;;3.63;;
63965;SDS011;50151;52.030;5.350;2023-04-29T10:31:02;6.43;;;3.40;;
63965;SDS011;50151;52.030;5.350;2023-04-29T10:33:31;8.23;;;4.15;;
63965;SDS011;50151;52.030;5.350;2023-04-29T10:36:00;9.50;;;4.03;;
63965;SDS011;50151;52.030;5.350;2023-04-29T10:38:33;7.13;;;4.43;;
63965;SDS011;50151;52.030;5.350;2023-04-29T10:41:08;7.03;;;3.70;;
63965;SDS011;50151;52.030;5.350;2023-04-29T10:43:42;9.82;;;3.70;;
63965;SDS011;50151;52.030;5.350;2023-04-29T10:46:25;5.43;;;2.97;;
63965;SDS011;50151;52.030;5.350;2023-04-29T10:48:56;5.40;;;3.20;;
63965;SDS011;50151;52.030;5.350;2023-04-29T10:51:33;6.43;;;2.90;;
63965;SDS011;50151;52.030;5.350;2023-04-29T10:56:46;6.50;;;3.47;;
63965;SDS011;50151;52.030;5.350;2023-04-29T11:01:53;8.43;;;3.65;;
63965;SDS011;50151;52.030;5.350;2023-04-29T11:04:20;6.22;;;3.50;;
63965;SDS011;50151;52.030;5.350;2023-04-29T11:06:55;7.10;;;3.58;;
63965;SDS011;50151;52.030;5.350;2023-04-29T11:09:26;9.93;;;4.05;;
63965;SDS011;50151;52.030;5.350;2023-04-29T11:11:55;7.07;;;3.53;;
63965;SDS011;50151;52.030;5.350;2023-04-29T11:17:21;6.40;;;3.97;;
63965;SDS011;50151;52.030;5.350;2023-04-29T11:19:51;7.10;;;3.25;;
63965;SDS011;50151;52.030;5.350;2023-04-29T11:27:24;5.40;;;3.10;;
63965;SDS011;50151;52.030;5.350;2023-04-29T11:29:59;8.50;;;3.33;;
63965;SDS011;50151;52.030;5.350;2023-04-29T11:32:27;7.47;;;3.00;;
63965;SDS011;50151;52.030;5.350;2023-04-29T11:37:44;5.32;;;2.92;;
63965;SDS011;50151;52.030;5.350;2023-04-29T11:40:11;6.32;;;3.08;;
63965;SDS011;50151;52.030;5.350;2023-04-29T11:42:48;5.18;;;3.03;;
63965;SDS011;50151;52.030;5.350;2023-04-29T11:45:16;6.88;;;3.05;;
63965;SDS011;50151;52.030;5.350;2023-04-29T11:47:44;3.97;;;2.72;;
63965;SDS011;50151;52.030;5.350;2023-04-29T11:50:12;5.38;;;2.70;;
63965;SDS011;50151;52.030;5.350;2023-04-29T11:52:41;6.07;;;3.10;;
63965;SDS011;50151;52.030;5.350;2023-04-29T11:55:10;7.47;;;3.13;;
63965;SDS011;50151;52.030;5.350;2023-04-29T11:57:37;4.43;;;2.80;;
63965;SDS011;50151;52.030;5.350;2023-04-29T12:00:12;5.18;;;2.80;;
63965;SDS011;50151;52.030;5.350;2023-04-29T12:05:09;8.05;;;2.70;;
63965;SDS011;50151;52.030;5.350;2023-04-29T12:07:38;6.95;;;2.40;;
63965;SDS011;50151;52.030;5.350;2023-04-29T12:10:10;6.68;;;2.70;;
63965;SDS011;50151;52.030;5.350;2023-04-29T12:12:38;5.25;;;2.70;;
63965;SDS011;50151;52.030;5.350;2023-04-29T12:15:07;4.32;;;2.70;;
63965;SDS011;50151;52.030;5.350;2023-04-29T12:17:35;6.30;;;2.90;;
63965;SDS011;50151;52.030;5.350;2023-04-29T12:20:03;7.03;;;2.38;;
63965;SDS011;50151;52.030;5.350;2023-04-29T12:22:32;4.35;;;2.20;;
63965;SDS011;50151;52.030;5.350;2023-04-29T12:24:58;5.18;;;2.60;;
63965;SDS011;50151;52.030;5.350;2023-04-29T12:27:28;4.85;;;2.50;;
63965;SDS011;50151;52.030;5.350;2023-04-29T12:29:55;5.10;;;2.42;;
63965;SDS011;50151;52.030;5.350;2023-04-29T12:32:23;4.28;;;2.38;;
63965;SDS011;50151;52.030;5.350;2023-04-29T12:34:50;3.85;;;2.80;;
63965;SDS011;50151;52.030;5.350;2023-04-29T12:37:18;4.40;;;2.60;;
63965;SDS011;50151;52.030;5.350;2023-04-29T12:39:48;5.53;;;2.70;;
63965;SDS011;50151;52.030;5.350;2023-04-29T12:42:23;8.77;;;3.00;;
63965;SDS011;50151;52.030;5.350;2023-04-29T12:44:58;5.10;;;2.53;;
63965;SDS011;50151;52.030;5.350;2023-04-29T12:47:24;4.43;;;2.55;;
63965;SDS011;50151;52.030;5.350;2023-04-29T12:52:26;6.55;;;3.03;;
63965;SDS011;50151;52.030;5.350;2023-04-29T12:54:52;5.40;;;2.60;;
63965;SDS011;50151;52.030;5.350;2023-04-29T12:57:19;4.70;;;2.80;;
63965;SDS011;50151;52.030;5.350;2023-04-29T12:59:47;7.15;;;2.90;;
63965;SDS011;50151;52.030;5.350;2023-04-29T13:02:14;7.05;;;3.00;;
63965;SDS011;50151;52.030;5.350;2023-04-29T13:04:41;5.07;;;2.95;;
63965;SDS011;50151;52.030;5.350;2023-04-29T13:07:15;8.13;;;3.58;;
63965;SDS011;50151;52.030;5.350;2023-04-29T13:09:43;9.23;;;3.30;;
63965;SDS011;50151;52.030;5.350;2023-04-29T13:12:09;8.10;;;3.05;;
63965;SDS011;50151;52.030;5.350;2023-04-29T13:14:36;9.10;;;2.88;;
63965;SDS011;50151;52.030;5.350;2023-04-29T13:17:03;5.70;;;3.00;;
63965;SDS011;50151;52.030;5.350;2023-04-29T13:19:30;9.38;;;3.10;;
63965;SDS011;50151;52.030;5.350;2023-04-29T13:22:16;8.20;;;3.65;;
63965;SDS011;50151;52.030;5.350;2023-04-29T13:24:44;7.07;;;3.47;;
63965;SDS011;50151;52.030;5.350;2023-04-29T13:27:12;8.63;;;3.22;;
63965;SDS011;50151;52.030;5.350;2023-04-29T13:29:38;7.07;;;3.53;;
63965;SDS011;50151;52.030;5.350;2023-04-29T13:32:06;6.40;;;3.15;;
63965;SDS011;50151;52.030;5.350;2023-04-29T13:34:34;7.15;;;3.20;;
63965;SDS011;50151;52.030;5.350;2023-04-29T13:37:01;5.70;;;2.70;;
63965;SDS011;50151;52.030;5.350;2023-04-29T13:39:28;9.15;;;3.13;;
63965;SDS011;50151;52.030;5.350;2023-04-29T13:41:55;8.27;;;3.17;;
63965;SDS011;50151;52.030;5.350;2023-04-29T13:44:24;11.02;;;3.80;;
63965;SDS011;50151;52.030;5.350;2023-04-29T13:47:05;5.43;;;3.13;;
63965;SDS011;50151;52.030;5.350;2023-04-29T13:49:32;7.85;;;3.00;;
63965;SDS011;50151;52.030;5.350;2023-04-29T13:52:19;5.65;;;3.00;;
63965;SDS011;50151;52.030;5.350;2023-04-29T13:54:48;6.00;;;2.58;;
63965;SDS011;50151;52.030;5.350;2023-04-29T13:57:35;6.82;;;2.83;;
63965;SDS011;50151;52.030;5.350;2023-04-29T14:00:05;9.68;;;3.60;;
63965;SDS011;50151;52.030;5.350;2023-04-29T14:02:54;5.30;;;2.90;;
63965;SDS011;50151;52.030;5.350;2023-04-29T14:05:24;6.95;;;3.10;;
63965;SDS011;50151;52.030;5.350;2023-04-29T14:07:51;6.85;;;2.95;;
63965;SDS011;50151;52.030;5.350;2023-04-29T14:10:21;4.25;;;2.60;;
63965;SDS011;50151;52.030;5.350;2023-04-29T14:12:48;5.85;;;3.00;;
63965;SDS011;50151;52.030;5.350;2023-04-29T14:15:15;6.65;;;2.78;;
63965;SDS011;50151;52.030;5.350;2023-04-29T14:17:45;5.32;;;2.53;;
63965;SDS011;50151;52.030;5.350;2023-04-29T14:20:12;4.70;;;2.78;;
63965;SDS011;50151;52.030;5.350;2023-04-29T14:22:39;5.68;;;3.00;;
63965;SDS011;50151;52.030;5.350;2023-04-29T14:25:05;6.10;;;3.15;;
63965;SDS011;50151;52.030;5.350;2023-04-29T14:27:33;6.03;;;3.00;;
63965;SDS011;50151;52.030;5.350;2023-04-29T14:30:01;4.82;;;2.70;;
63965;SDS011;50151;52.030;5.350;2023-04-29T14:32:29;5.72;;;2.95;;
63965;SDS011;50151;52.030;5.350;2023-04-29T14:34:56;8.98;;;2.83;;
63965;SDS011;50151;52.030;5.350;2023-04-29T14:37:23;4.75;;;3.00;;
63965;SDS011;50151;52.030;5.350;2023-04-29T14:39:51;8.35;;;3.35;;
63965;SDS011;50151;52.030;5.350;2023-04-29T14:42:20;6.72;;;3.60;;
63965;SDS011;50151;52.030;5.350;2023-04-29T14:44:46;8.50;;;3.25;;
63965;SDS011;50151;52.030;5.350;2023-04-29T14:47:13;4.85;;;3.30;;
63965;SDS011;50151;52.030;5.350;2023-04-29T14:49:40;5.90;;;2.92;;
63965;SDS011;50151;52.030;5.350;2023-04-29T14:52:11;4.53;;;3.20;;
63965;SDS011;50151;52.030;5.350;2023-04-29T14:57:11;6.15;;;3.00;;
63965;SDS011;50151;52.030;5.350;2023-04-29T14:59:38;7.15;;;3.03;;
63965;SDS011;50151;52.030;5.350;2023-04-29T15:02:04;9.10;;;2.97;;
63965;SDS011;50151;52.030;5.350;2023-04-29T15:04:32;6.72;;;3.22;;
63965;SDS011;50151;52.030;5.350;2023-04-29T15:06:59;4.38;;;2.75;;
63965;SDS011;50151;52.030;5.350;2023-04-29T15:09:26;5.93;;;3.28;;
63965;SDS011;50151;52.030;5.350;2023-04-29T15:11:53;6.90;;;2.58;;
63965;SDS011;50151;52.030;5.350;2023-04-29T15:14:21;6.47;;;2.88;;
63965;SDS011;50151;52.030;5.350;2023-04-29T15:16:47;6.40;;;3.17;;
63965;SDS011;50151;52.030;5.350;2023-04-29T15:19:14;11.18;;;3.10;;
63965;SDS011;50151;52.030;5.350;2023-04-29T15:21:41;5.53;;;2.72;;